Time;durP1;ratioP1;P1;durP2;ratioP2;P2;SDS_P1;SDS_P2;PMS_P1;PMS_P2;Temp;Humidity;BMP_temperature;BMP_pressure;BME280_temperature;BME280_humidity;BME280_pressure;Samples;Min_cycle;Max_cycle;Signal;HPM_P1;HPM_P2
2022/08/24 00:01:14;;;;;;;6.18;4.00;;;19.50;75.60;;;;;;5035426;28;20037;-12
2022/08/24 00:03:42;;;;;;;5.20;3.60;;;19.40;75.80;;;;;;5034292;28;20504;-12
2022/08/24 00:06:12;;;;;;;6.47;4.38;;;19.40;75.60;;;;;;5034356;28;20029;-12
2022/08/24 00:08:39;;;;;;;3.85;3.45;;;19.40;76.00;;;;;;5035914;28;20033;-11
2022/08/24 00:11:06;;;;;;;4.43;3.50;;;19.30;75.80;;;;;;5035612;28;20421;-12
2022/08/24 00:13:32;;;;;;;4.57;3.90;;;19.30;75.90;;;;;;5035758;28;20033;-11
2022/08/24 00:15:58;;;;;;;6.47;4.43;;;19.20;76.00;;;;;;5035409;28;20064;-12
2022/08/24 00:18:24;;;;;;;4.90;4.00;;;19.20;76.20;;;;;;5035317;28;20101;-12
2022/08/24 00:20:51;;;;;;;5.25;3.42;;;19.20;76.30;;;;;;5035448;28;20025;-12
2022/08/24 00:23:17;;;;;;;4.05;3.63;;;19.20;76.10;;;;;;5035489;28;20028;-11
2022/08/24 00:25:44;;;;;;;5.15;4.20;;;19.20;76.20;;;;;;5035502;28;20029;-11
2022/08/24 00:28:10;;;;;;;6.60;4.63;;;19.10;76.40;;;;;;5035005;28;20049;-13
2022/08/24 00:30:37;;;;;;;8.65;5.78;;;19.10;76.60;;;;;;5035217;28;20021;-11
2022/08/24 00:33:03;;;;;;;8.98;7.00;;;19.10;76.70;;;;;;5034904;28;20030;-12
2022/08/24 00:35:30;;;;;;;6.75;4.47;;;19.00;77.20;;;;;;5034997;28;20430;-12
2022/08/24 00:37:56;;;;;;;7.95;4.70;;;19.10;77.20;;;;;;5035274;28;20029;-12
2022/08/24 00:40:36;;;;;;;6.20;4.70;;;19.00;77.30;;;;;;5034878;28;20025;-13
2022/08/24 00:43:05;;;;;;;4.82;4.07;;;19.00;77.30;;;;;;5034692;28;20056;-11
2022/08/24 00:45:36;;;;;;;6.40;4.38;;;19.00;77.30;;;;;;5035096;28;20025;-12
2022/08/24 00:48:10;;;;;;;5.30;4.50;;;18.90;77.50;;;;;;5034634;28;20021;-12
2022/08/24 00:50:46;;;;;;;7.90;5.85;;;18.90;77.60;;;;;;5034727;28;20161;-11
2022/08/24 00:53:31;;;;;;;5.80;4.78;;;18.90;78.60;;;;;;5035019;28;20025;-11
2022/08/24 00:56:01;;;;;;;5.55;4.60;;;18.90;78.10;;;;;;5035063;28;20022;-11
2022/08/24 00:58:40;;;;;;;7.93;6.22;;;18.90;78.00;;;;;;5034881;28;20056;-11
2022/08/24 01:01:08;;;;;;;6.43;4.32;;;18.80;78.80;;;;;;5034436;28;20029;-11
2022/08/24 01:03:36;;;;;;;8.23;6.55;;;18.80;79.50;;;;;;5034621;28;20030;-11
2022/08/24 01:06:04;;;;;;;6.55;5.28;;;18.70;78.80;;;;;;5034732;28;20026;-11
2022/08/24 01:08:30;;;;;;;10.45;7.18;;;18.70;78.80;;;;;;5034276;28;20040;-12
2022/08/24 01:11:00;;;;;;;9.52;6.82;;;18.60;80.00;;;;;;5034066;28;20033;-11
2022/08/24 01:13:27;;;;;;;10.02;6.78;;;18.50;79.20;;;;;;5035087;28;20024;-10
2022/08/24 01:16:00;;;;;;;9.25;6.60;;;18.50;79.40;;;;;;5034215;28;20029;-11
2022/08/24 01:21:22;;;;;;;8.35;6.10;;;18.50;79.20;;;;;;5034487;28;20044;-11
2022/08/24 01:23:56;;;;;;;9.38;5.90;;;18.50;79.30;;;;;;5034159;28;20064;-12
2022/08/24 01:26:34;;;;;;;9.23;7.13;;;18.50;79.20;;;;;;5034374;28;20145;-10
2022/08/24 01:29:04;;;;;;;12.40;8.00;;;18.50;79.30;;;;;;5033626;28;20088;-12
2022/08/24 01:31:30;;;;;;;11.90;8.32;;;18.50;79.40;;;;;;5034346;28;20029;-11
2022/08/24 01:33:56;;;;;;;10.63;6.95;;;18.50;79.60;;;;;;5033987;28;20565;-11
2022/08/24 01:36:33;;;;;;;9.43;6.20;;;18.50;79.70;;;;;;5034097;28;20120;-11
2022/08/24 01:39:07;;;;;;;10.38;6.72;;;18.40;79.50;;;;;;5033591;28;20512;-11
2022/08/24 01:41:33;;;;;;;11.10;8.75;;;18.40;79.50;;;;;;5034136;28;20018;-11
2022/08/24 01:43:59;;;;;;;9.23;6.97;;;18.40;79.70;;;;;;5033957;28;20022;-11
2022/08/24 01:46:25;;;;;;;12.95;10.32;;;18.40;79.60;;;;;;5032482;28;20041;-12
2022/08/24 01:48:52;;;;;;;10.15;6.90;;;18.40;79.60;;;;;;5033191;28;20037;-12
2022/08/24 01:51:19;;;;;;;7.80;6.20;;;18.40;80.10;;;;;;5034109;28;20499;-11
2022/08/24 01:53:45;;;;;;;7.95;6.10;;;18.40;79.90;;;;;;5033571;28;20033;-12
2022/08/24 01:56:11;;;;;;;8.15;6.65;;;18.40;79.80;;;;;;5033840;28;20036;-11
2022/08/24 01:58:44;;;;;;;8.77;6.13;;;18.40;79.70;;;;;;5031893;28;20500;-12
2022/08/24 02:01:10;;;;;;;8.30;6.27;;;18.40;79.60;;;;;;5032439;28;20029;-11
2022/08/24 02:03:36;;;;;;;7.97;6.50;;;18.30;79.80;;;;;;5033544;28;20074;-10
2022/08/24 02:06:04;;;;;;;7.53;6.07;;;18.30;79.90;;;;;;5033683;28;20041;-11
2022/08/24 02:08:35;;;;;;;8.15;6.43;;;18.30;79.90;;;;;;5033355;28;20038;-11
2022/08/24 02:11:07;;;;;;;8.65;6.43;;;18.30;79.90;;;;;;5033190;28;20101;-12
2022/08/24 02:13:35;;;;;;;10.50;8.45;;;18.20;80.20;;;;;;5033637;28;20026;-12
2022/08/24 02:16:01;;;;;;;8.70;6.55;;;18.20;80.40;;;;;;5033539;28;20025;-11
2022/08/24 02:18:26;;;;;;;10.07;7.25;;;18.20;80.40;;;;;;5033181;28;20359;-11
2022/08/24 02:20:53;;;;;;;8.95;6.70;;;18.10;80.40;;;;;;5033268;28;20017;-11
2022/08/24 02:23:19;;;;;;;8.60;6.43;;;18.10;80.40;;;;;;5033157;28;20448;-12
2022/08/24 02:25:46;;;;;;;8.82;6.28;;;18.10;80.50;;;;;;5033438;28;20030;-12
2022/08/24 02:28:12;;;;;;;6.75;5.43;;;18.00;80.60;;;;;;5032966;28;20136;-11
2022/08/24 02:30:39;;;;;;;7.70;6.22;;;18.00;80.90;;;;;;5033086;28;20034;-12
2022/08/24 02:33:06;;;;;;;7.93;6.18;;;18.00;80.50;;;;;;5032734;28;20036;-11
2022/08/24 02:35:33;;;;;;;7.15;5.82;;;18.00;80.70;;;;;;5033011;28;20033;-11
2022/08/24 02:37:59;;;;;;;7.20;5.60;;;18.00;80.60;;;;;;5032991;28;20038;-11
2022/08/24 02:40:25;;;;;;;7.10;6.03;;;17.90;80.70;;;;;;5033341;28;20029;-11
2022/08/24 02:42:51;;;;;;;10.82;6.80;;;18.00;80.80;;;;;;5033335;28;20034;-11
2022/08/24 02:45:17;;;;;;;10.57;7.05;;;17.90;80.90;;;;;;5031721;28;20025;-11
2022/08/24 02:47:44;;;;;;;11.50;7.53;;;17.90;81.10;;;;;;5032811;28;20057;-12
2022/08/24 02:50:13;;;;;;;10.93;7.00;;;17.90;81.10;;;;;;5033124;28;20485;-11
2022/08/24 02:52:40;;;;;;;9.27;6.63;;;17.90;81.10;;;;;;5032868;28;20057;-11
2022/08/24 02:55:09;;;;;;;7.82;6.10;;;17.80;81.00;;;;;;5033147;28;20030;-11
2022/08/24 02:57:35;;;;;;;10.18;7.30;;;17.90;81.20;;;;;;5033152;28;20032;-11
2022/08/24 03:00:03;;;;;;;12.80;7.88;;;17.90;81.10;;;;;;5032825;28;20055;-11
2022/08/24 03:02:29;;;;;;;14.43;12.13;;;17.80;81.10;;;;;;5033141;28;20091;-11
2022/08/24 03:04:55;;;;;;;13.70;10.43;;;17.80;81.10;;;;;;5032813;28;20408;-11
2022/08/24 03:07:21;;;;;;;13.65;10.40;;;17.90;81.50;;;;;;5032709;28;20083;-12
2022/08/24 03:09:47;;;;;;;14.38;11.35;;;17.80;81.50;;;;;;5032909;28;20120;-11
2022/08/24 03:12:14;;;;;;;14.20;10.90;;;17.80;81.80;;;;;;5036282;28;20082;-12
2022/08/24 03:14:40;;;;;;;13.18;9.77;;;17.80;81.90;;;;;;5036487;28;20025;-11
2022/08/24 03:17:06;;;;;;;16.20;12.85;;;17.90;81.90;;;;;;5036322;28;20025;-11
2022/08/24 03:19:32;;;;;;;11.75;9.77;;;17.90;82.00;;;;;;5036358;28;20033;-11
2022/08/24 03:21:58;;;;;;;12.30;9.85;;;17.90;82.30;;;;;;5036342;28;20037;-11
2022/08/24 03:24:24;;;;;;;12.57;9.27;;;17.90;82.00;;;;;;5036461;28;20025;-11
2022/08/24 03:26:50;;;;;;;14.52;10.82;;;18.00;81.90;;;;;;5036419;28;20084;-10
2022/08/24 03:29:16;;;;;;;12.48;9.63;;;18.00;82.10;;;;;;5036077;28;20053;-12
2022/08/24 03:31:43;;;;;;;12.57;9.35;;;18.00;81.80;;;;;;5036455;28;20382;-11
2022/08/24 03:34:12;;;;;;;12.07;9.45;;;18.00;82.00;;;;;;5036358;28;20070;-12
2022/08/24 03:36:45;;;;;;;17.20;12.77;;;18.00;81.60;;;;;;5036087;28;20017;-11
2022/08/24 03:39:13;;;;;;;14.65;11.88;;;18.00;81.70;;;;;;5036242;28;20117;-11
2022/08/24 03:41:40;;;;;;;21.17;13.48;;;18.10;81.60;;;;;;5036272;28;20571;-11
2022/08/24 03:44:05;;;;;;;13.35;10.45;;;18.10;81.70;;;;;;5036193;28;20022;-11
2022/08/24 03:46:35;;;;;;;12.55;9.98;;;18.10;81.70;;;;;;5036112;28;20072;-11
2022/08/24 03:49:04;;;;;;;13.98;9.50;;;18.10;81.70;;;;;;5035954;28;20461;-11
2022/08/24 03:51:30;;;;;;;13.50;9.60;;;18.10;81.80;;;;;;5035931;28;20028;-12
2022/08/24 03:53:58;;;;;;;12.32;9.65;;;18.10;81.70;;;;;;5035818;28;20030;-11
2022/08/24 03:56:25;;;;;;;13.15;9.95;;;18.10;81.50;;;;;;5036048;28;20037;-10
2022/08/24 03:58:51;;;;;;;11.25;8.85;;;18.10;81.40;;;;;;5036171;28;20491;-11
2022/08/24 04:01:17;;;;;;;14.85;10.73;;;18.10;81.40;;;;;;5036019;28;20386;-11
2022/08/24 04:03:46;;;;;;;10.55;8.30;;;18.10;81.40;;;;;;5035560;28;20037;-11
2022/08/24 04:06:13;;;;;;;8.98;7.35;;;18.10;81.40;;;;;;5035614;28;20136;-12
2022/08/24 04:08:40;;;;;;;12.07;9.23;;;18.10;81.30;;;;;;5036044;28;20116;-11
2022/08/24 04:11:11;;;;;;;10.18;7.90;;;18.10;81.50;;;;;;5035644;28;20034;-12
2022/08/24 04:13:37;;;;;;;9.68;7.97;;;18.10;81.30;;;;;;5035843;28;20053;-12
2022/08/24 04:16:13;;;;;;;11.38;9.20;;;18.00;81.50;;;;;;5035726;28;20026;-11
2022/08/24 04:18:40;;;;;;;9.20;7.18;;;18.00;81.80;;;;;;5035320;28;20111;-11
2022/08/24 04:21:14;;;;;;;14.55;10.57;;;17.90;81.70;;;;;;5033573;28;20218;-11
2022/08/24 04:23:41;;;;;;;13.13;8.55;;;17.90;81.80;;;;;;5035319;28;20022;-12
2022/08/24 04:26:06;;;;;;;15.10;9.45;;;17.90;82.00;;;;;;5035191;28;20418;-12
2022/08/24 04:28:32;;;;;;;15.27;11.02;;;17.90;82.00;;;;;;5034831;28;20052;-11
2022/08/24 04:30:59;;;;;;;16.73;11.27;;;17.90;81.90;;;;;;5035480;28;20022;-11
2022/08/24 04:33:25;;;;;;;10.20;8.13;;;17.90;82.00;;;;;;5035323;28;20029;-12
2022/08/24 04:35:51;;;;;;;10.93;8.32;;;17.90;82.00;;;;;;5035019;28;20025;-12
2022/08/24 04:38:18;;;;;;;11.25;8.13;;;17.90;81.90;;;;;;5034983;28;20027;-11
2022/08/24 04:40:46;;;;;;;10.40;7.85;;;17.90;82.00;;;;;;5034949;28;20022;-11
2022/08/24 04:43:15;;;;;;;10.98;7.95;;;17.90;82.00;;;;;;5035219;28;20068;-11
2022/08/24 04:45:44;;;;;;;10.10;7.72;;;17.90;81.90;;;;;;5034875;28;20021;-11
2022/08/24 04:48:11;;;;;;;10.90;8.30;;;17.90;81.90;;;;;;5034949;28;20122;-11
2022/08/24 04:50:40;;;;;;;11.77;8.13;;;17.90;81.90;;;;;;5035105;28;20124;-12
2022/08/24 04:53:06;;;;;;;11.30;7.85;;;18.00;82.10;;;;;;5034564;28;20026;-11
2022/08/24 04:55:40;;;;;;;11.30;7.88;;;18.00;82.00;;;;;;5034983;28;20032;-11
2022/08/24 04:58:06;;;;;;;12.57;8.80;;;18.10;81.90;;;;;;5035021;28;20053;-11
2022/08/24 05:00:32;;;;;;;11.00;8.02;;;18.10;82.20;;;;;;5034857;28;20465;-11
2022/08/24 05:02:58;;;;;;;9.85;7.82;;;18.20;81.80;;;;;;5034202;28;20509;-12
2022/08/24 05:05:24;;;;;;;11.60;8.20;;;18.20;81.90;;;;;;5034768;28;20095;-12
2022/08/24 05:07:50;;;;;;;11.18;7.63;;;18.20;82.00;;;;;;5034430;28;20490;-11
2022/08/24 05:10:16;;;;;;;10.65;8.20;;;18.30;81.80;;;;;;5034531;28;20056;-12
2022/08/24 05:12:43;;;;;;;11.35;8.77;;;18.40;82.00;;;;;;5034677;28;20065;-11
2022/08/24 05:15:09;;;;;;;12.20;8.77;;;18.40;82.30;;;;;;5034928;28;20112;-12
2022/08/24 05:17:35;;;;;;;14.35;10.05;;;18.60;81.70;;;;;;5034240;28;20574;-11
2022/08/24 05:20:01;;;;;;;13.57;9.00;;;18.60;82.00;;;;;;5034867;28;20033;-13
2022/08/24 05:22:26;;;;;;;12.88;7.45;;;18.70;81.30;;;;;;5034116;28;20520;-12
2022/08/24 05:24:53;;;;;;;9.30;6.88;;;18.80;81.00;;;;;;5032595;28;20025;-11
2022/08/24 05:27:19;;;;;;;9.88;7.10;;;18.90;81.00;;;;;;5033792;28;20025;-11
2022/08/24 05:29:45;;;;;;;10.88;8.38;;;19.10;80.50;;;;;;5033932;28;20033;-11
2022/08/24 05:32:11;;;;;;;12.25;8.93;;;19.20;80.40;;;;;;5033940;28;20025;-12
2022/08/24 05:34:37;;;;;;;12.15;9.38;;;19.30;79.90;;;;;;5033788;28;20027;-12
2022/08/24 05:37:03;;;;;;;11.35;7.85;;;19.40;79.80;;;;;;5034342;28;20026;-11
2022/08/24 05:39:30;;;;;;;12.35;9.50;;;19.40;79.50;;;;;;5034128;28;20091;-12
2022/08/24 05:41:58;;;;;;;10.45;6.97;;;19.50;79.30;;;;;;5034141;28;20029;-12
2022/08/24 05:44:25;;;;;;;11.90;8.57;;;19.60;79.00;;;;;;5034098;28;20041;-12
2022/08/24 05:46:52;;;;;;;9.60;7.47;;;19.70;79.00;;;;;;5033836;28;20033;-11
2022/08/24 05:49:17;;;;;;;10.90;8.00;;;19.90;79.50;;;;;;5033727;28;20021;-11
2022/08/24 05:51:43;;;;;;;11.82;7.88;;;20.00;79.60;;;;;;5033623;28;20025;-11
2022/08/24 05:54:12;;;;;;;10.85;8.38;;;20.10;79.30;;;;;;5033869;28;20028;-11
2022/08/24 05:56:39;;;;;;;11.20;7.50;;;20.30;79.10;;;;;;5033541;28;20537;-11
2022/08/24 05:59:05;;;;;;;9.50;7.10;;;20.50;78.60;;;;;;5033618;28;20013;-12
2022/08/24 06:01:32;;;;;;;10.30;8.05;;;20.60;78.30;;;;;;5032553;28;20432;-11
2022/08/24 06:03:59;;;;;;;11.25;7.25;;;20.70;77.60;;;;;;5033562;28;20025;-12
2022/08/24 06:06:25;;;;;;;8.82;7.30;;;20.90;77.20;;;;;;5033548;28;20033;-12
2022/08/24 06:08:55;;;;;;;8.15;5.63;;;20.90;76.90;;;;;;5033390;28;20124;-12
2022/08/24 06:11:24;;;;;;;8.75;6.55;;;20.90;76.80;;;;;;5032126;28;20022;-12
2022/08/24 06:13:54;;;;;;;13.70;8.23;;;21.10;77.30;;;;;;5033300;28;20032;-11
2022/08/24 06:16:21;;;;;;;8.57;6.10;;;21.20;77.60;;;;;;5033380;28;20013;-11
2022/08/24 06:18:48;;;;;;;12.02;7.95;;;21.40;77.00;;;;;;5032906;28;20055;-15
2022/08/24 06:21:17;;;;;;;9.10;6.85;;;21.50;76.60;;;;;;5033480;28;20064;-12
2022/08/24 06:23:44;;;;;;;8.32;5.53;;;21.70;76.10;;;;;;5034014;28;20039;-11
2022/08/24 06:29:02;;;;;;;9.02;6.35;;;21.90;75.60;;;;;;5032738;28;20060;-12
2022/08/24 06:31:28;;;;;;;9.88;6.80;;;22.00;75.40;;;;;;5033072;28;20053;-12
2022/08/24 06:33:55;;;;;;;9.23;5.60;;;22.10;75.20;;;;;;5032932;28;20033;-12
2022/08/24 06:36:21;;;;;;;8.50;5.78;;;22.30;75.80;;;;;;5032988;28;20431;-12
2022/08/24 06:38:47;;;;;;;7.93;4.68;;;22.50;74.90;;;;;;5032823;28;20120;-11
2022/08/24 06:41:13;;;;;;;5.72;4.68;;;22.70;74.10;;;;;;5033325;28;20171;-10
2022/08/24 06:43:40;;;;;;;6.97;5.20;;;22.90;73.60;;;;;;5033301;28;20143;-10
2022/08/24 06:46:07;;;;;;;6.85;4.43;;;23.00;72.70;;;;;;5036588;28;20025;-10
2022/08/24 06:48:34;;;;;;;5.72;3.70;;;23.30;72.00;;;;;;5037771;28;20033;-10
2022/08/24 06:51:00;;;;;;;8.00;4.22;;;23.40;72.00;;;;;;5037130;28;20071;-10
2022/08/24 06:53:26;;;;;;;6.35;4.32;;;23.70;71.80;;;;;;5037026;28;20029;-12
2022/08/24 06:55:57;;;;;;;5.72;4.03;;;23.90;71.10;;;;;;5036910;28;20057;-9
2022/08/24 06:58:26;;;;;;;6.07;3.63;;;24.00;70.50;;;;;;5036825;28;20033;-9
2022/08/24 07:00:53;;;;;;;5.28;3.60;;;24.30;69.10;;;;;;5036578;28;20099;-9
2022/08/24 07:03:20;;;;;;;6.45;3.95;;;24.40;69.00;;;;;;5036621;28;20037;-9
2022/08/24 07:05:56;;;;;;;7.00;4.00;;;24.60;67.50;;;;;;5037022;28;20033;-9
2022/08/24 07:08:23;;;;;;;9.93;4.68;;;24.90;67.20;;;;;;5036638;28;20087;-9
2022/08/24 07:10:50;;;;;;;4.90;2.97;;;25.00;66.50;;;;;;5036613;28;20377;-9
2022/08/24 07:13:16;;;;;;;6.22;3.22;;;25.20;66.20;;;;;;5036858;28;20029;-9
2022/08/24 07:15:43;;;;;;;7.40;3.40;;;25.40;65.40;;;;;;5036517;28;20032;-9
2022/08/24 07:18:17;;;;;;;4.20;2.80;;;25.60;65.00;;;;;;5036532;28;20018;-9
2022/08/24 07:20:44;;;;;;;6.53;3.30;;;25.80;65.00;;;;;;5036617;28;20033;-9
2022/08/24 07:23:13;;;;;;;5.13;2.78;;;26.00;64.10;;;;;;5036294;28;20017;-9
2022/08/24 07:25:41;;;;;;;4.03;2.10;;;26.20;63.60;;;;;;5036656;28;20026;-8
2022/08/24 07:28:08;;;;;;;4.30;2.03;;;26.40;63.20;;;;;;5036312;28;20064;-9
2022/08/24 07:30:34;;;;;;;2.20;2.00;;;26.50;62.90;;;;;;5036322;28;20564;-9
2022/08/24 07:33:00;;;;;;;4.63;2.30;;;26.70;62.00;;;;;;5036266;28;20121;-9
2022/08/24 07:35:28;;;;;;;4.32;2.10;;;26.80;60.50;;;;;;5036213;28;20164;-9
2022/08/24 07:37:55;;;;;;;3.25;2.05;;;27.00;60.20;;;;;;5036123;28;20500;-9
2022/08/24 07:40:23;;;;;;;3.83;2.28;;;27.10;57.60;;;;;;5036417;28;20028;-9
2022/08/24 07:42:52;;;;;;;3.47;2.45;;;27.20;59.60;;;;;;5036135;28;20060;-9
2022/08/24 07:45:19;;;;;;;2.17;1.80;;;27.30;59.00;;;;;;5036000;28;20030;-9
2022/08/24 07:47:45;;;;;;;3.15;2.10;;;27.50;58.60;;;;;;5035969;28;20029;-9
2022/08/24 07:50:13;;;;;;;2.60;2.05;;;27.70;58.20;;;;;;5034863;28;20034;-9
2022/08/24 07:52:40;;;;;;;3.28;2.35;;;27.90;55.40;;;;;;5036160;28;20033;-9
2022/08/24 07:55:07;;;;;;;3.88;2.03;;;27.90;56.80;;;;;;5035613;28;20032;-9
2022/08/24 07:57:33;;;;;;;3.83;2.30;;;28.00;56.70;;;;;;5035469;28;20436;-10
2022/08/24 08:00:01;;;;;;;3.50;2.03;;;28.20;55.90;;;;;;5035711;28;20030;-9
2022/08/24 08:02:27;;;;;;;3.70;2.10;;;28.30;55.60;;;;;;5035565;28;20517;-9
2022/08/24 08:04:56;;;;;;;3.17;2.00;;;28.50;55.30;;;;;;5035395;28;20040;-9
2022/08/24 08:07:22;;;;;;;2.30;2.00;;;28.70;54.60;;;;;;5035562;28;20029;-9
2022/08/24 08:09:48;;;;;;;2.45;1.90;;;28.80;52.70;;;;;;5035520;28;20367;-9
2022/08/24 08:12:15;;;;;;;4.30;2.15;;;28.80;53.60;;;;;;5035507;28;20128;-9
2022/08/24 08:14:41;;;;;;;2.00;1.80;;;29.00;52.80;;;;;;5035462;28;20505;-9
2022/08/24 08:17:07;;;;;;;4.03;2.13;;;29.20;52.80;;;;;;5035584;28;20117;-9
2022/08/24 08:19:33;;;;;;;4.85;1.98;;;29.40;52.00;;;;;;5035262;28;20112;-9
2022/08/24 08:24:44;;;;;;;2.15;1.95;;;29.50;51.10;;;;;;5035362;28;20444;-9
2022/08/24 08:27:11;;;;;;;2.88;2.20;;;29.70;50.80;;;;;;5035117;28;20018;-9
2022/08/24 08:29:39;;;;;;;2.88;1.90;;;29.80;50.00;;;;;;5034936;28;20097;-9
2022/08/24 08:32:06;;;;;;;3.92;1.90;;;30.00;49.20;;;;;;5035100;28;20030;-9
2022/08/24 08:34:33;;;;;;;3.03;1.80;;;30.10;49.10;;;;;;5034986;28;20068;-9
2022/08/24 08:37:00;;;;;;;4.20;2.10;;;30.00;49.60;;;;;;5035111;28;20067;-9
2022/08/24 08:39:26;;;;;;;2.03;1.83;;;30.00;49.80;;;;;;5034954;28;20495;-9
2022/08/24 08:42:13;;;;;;;2.40;1.63;;;29.90;48.50;;;;;;5035215;28;20112;-9
2022/08/24 08:45:06;;;;;;;2.50;2.17;;;29.90;48.90;;;;;;5036035;28;20087;-10
2022/08/24 08:47:55;;;;;;;2.90;1.80;;;30.00;48.20;;;;;;5035095;28;20103;-9
2022/08/24 08:50:27;;;;;;;2.90;1.70;;;30.00;47.20;;;;;;5034667;28;20087;-9
2022/08/24 08:53:12;;;;;;;2.47;1.97;;;30.00;48.10;;;;;;5034846;28;20037;-9
2022/08/24 08:56:10;;;;;;;2.38;1.63;;;30.20;45.50;;;;;;5034679;28;20359;-9
2022/08/24 08:58:54;;;;;;;2.00;1.90;;;30.20;46.70;;;;;;5034807;28;20112;-10
2022/08/24 09:01:26;;;;;;;2.45;1.95;;;30.20;46.90;;;;;;5034655;28;20041;-9
2022/08/24 09:04:34;;;;;;;3.33;1.70;;;30.40;46.00;;;;;;5034754;28;20029;-9
2022/08/24 09:07:40;;;;;;;3.15;1.95;;;30.50;46.70;;;;;;5033020;28;20076;-9
2022/08/24 09:10:15;;;;;;;2.78;1.90;;;30.70;46.00;;;;;;5033177;28;20072;-9
2022/08/24 09:12:56;;;;;;;2.33;2.08;;;30.80;45.60;;;;;;5034327;28;20037;-10
2022/08/24 09:15:33;;;;;;;3.58;2.17;;;30.90;45.00;;;;;;5034665;28;20040;-9
2022/08/24 09:18:27;;;;;;;1.83;1.67;;;31.00;46.20;;;;;;5034584;28;20037;-9
2022/08/24 09:21:08;;;;;;;2.55;2.00;;;31.20;46.40;;;;;;5034096;28;20489;-9
2022/08/24 09:23:40;;;;;;;3.60;1.98;;;31.40;45.10;;;;;;5034179;28;20125;-9
2022/08/24 09:26:29;;;;;;;2.47;2.15;;;31.70;44.50;;;;;;5034030;28;20037;-9
2022/08/24 09:28:58;;;;;;;2.08;1.88;;;31.70;44.30;;;;;;5033594;28;20563;-9
2022/08/24 09:32:02;;;;;;;2.70;1.80;;;31.40;44.30;;;;;;5034030;28;20562;-9
2022/08/24 09:34:45;;;;;;;3.75;1.90;;;31.70;43.00;;;;;;5032608;28;20034;-9
2022/08/24 09:37:23;;;;;;;2.47;1.58;;;32.10;44.10;;;;;;5033741;28;20029;-10
2022/08/24 09:40:08;;;;;;;2.33;1.70;;;32.50;43.60;;;;;;5032567;28;20497;-9
2022/08/24 09:43:08;;;;;;;1.85;1.70;;;32.80;43.40;;;;;;5033894;28;20068;-9
2022/08/24 09:45:50;;;;;;;1.65;1.55;;;33.40;42.10;;;;;;5034430;28;20025;-9
2022/08/24 09:48:35;;;;;;;2.50;1.83;;;33.70;42.80;;;;;;5033925;28;20025;-9
2022/08/24 09:51:52;;;;;;;4.45;2.17;;;34.10;41.80;;;;;;5034313;28;20036;-9
2022/08/24 09:54:36;;;;;;;3.88;1.67;;;34.30;40.50;;;;;;5033714;28;20103;-9
2022/08/24 09:57:28;;;;;;;2.13;1.77;;;34.30;40.10;;;;;;5033408;28;20036;-9
2022/08/24 10:00:28;;;;;;;4.25;2.00;;;34.40;39.70;;;;;;5033477;28;20072;-9
2022/08/24 10:02:58;;;;;;;2.08;1.70;;;34.60;39.50;;;;;;5033294;28;20022;-9
2022/08/24 10:05:54;;;;;;;3.80;1.90;;;34.80;39.60;;;;;;5033613;28;20034;-9
2022/08/24 10:08:47;;;;;;;2.10;1.58;;;35.00;38.80;;;;;;5033826;28;20037;-10
2022/08/24 10:11:19;;;;;;;4.50;2.10;;;35.30;39.20;;;;;;5033331;28;20477;-9
2022/08/24 10:14:09;;;;;;;2.63;1.65;;;35.60;38.40;;;;;;5033755;28;20026;-9
2022/08/24 10:16:59;;;;;;;2.85;1.73;;;35.30;38.60;;;;;;5033969;28;20477;-10
2022/08/24 10:19:46;;;;;;;2.55;1.58;;;35.40;38.80;;;;;;5031726;28;20071;-9
2022/08/24 10:22:27;;;;;;;2.58;1.90;;;35.50;38.00;;;;;;5033236;28;20033;-9
2022/08/24 10:25:43;;;;;;;2.88;1.92;;;35.60;38.30;;;;;;5032969;28;20389;-10
2022/08/24 10:28:48;;;;;;;1.80;1.70;;;35.90;37.30;;;;;;5023293;28;20049;-10
2022/08/24 10:31:33;;;;;;;2.92;1.80;;;36.00;36.10;;;;;;4972156;28;20043;-9
2022/08/24 10:34:17;;;;;;;2.17;1.80;;;36.10;35.80;;;;;;4972234;28;20435;-9
2022/08/24 10:36:57;;;;;;;3.33;2.00;;;36.20;36.10;;;;;;4972304;28;20033;-10
2022/08/24 10:40:00;;;;;;;3.20;1.92;;;36.40;36.10;;;;;;4972468;28;20035;-9
2022/08/24 10:45:33;;;;;;;2.35;1.90;;;36.80;35.60;;;;;;4972553;28;20388;-9
2022/08/24 10:48:08;;;;;;;2.90;1.98;;;37.00;35.10;;;;;;4972217;28;20050;-9
2022/08/24 10:51:07;;;;;;;2.33;2.10;;;37.10;35.40;;;;;;4972175;28;20066;-9
2022/08/24 10:53:34;;;;;;;2.03;1.80;;;36.80;35.10;;;;;;4972536;28;20551;-10
2022/08/24 10:56:08;;;;;;;4.95;1.80;;;36.50;35.90;;;;;;4972083;28;20042;-10
2022/08/24 10:58:42;;;;;;;2.78;1.90;;;36.70;35.70;;;;;;4972283;28;20045;-10
2022/08/24 11:01:23;;;;;;;4.25;1.77;;;37.10;34.00;;;;;;4971990;28;20096;-9
2022/08/24 11:03:56;;;;;;;2.50;1.88;;;37.50;32.60;;;;;;4968347;28;20571;-10
2022/08/24 11:06:32;;;;;;;3.10;1.73;;;37.70;33.40;;;;;;4981382;28;20233;-9
2022/08/24 11:09:18;;;;;;;3.40;2.20;;;37.60;33.10;;;;;;5032838;28;20516;-10
2022/08/24 11:11:47;;;;;;;2.78;2.13;;;37.90;33.30;;;;;;5033116;28;20022;-9
2022/08/24 11:14:28;;;;;;;2.00;1.80;;;38.00;33.50;;;;;;5032975;28;20057;-9
2022/08/24 11:17:15;;;;;;;2.47;1.95;;;37.80;33.90;;;;;;5032615;28;20049;-9
2022/08/24 11:19:42;;;;;;;4.05;1.90;;;38.10;33.70;;;;;;5032937;28;20032;-10
2022/08/24 11:22:40;;;;;;;2.40;1.80;;;38.20;32.90;;;;;;5032656;28;20029;-9
2022/08/24 11:25:14;;;;;;;4.07;2.10;;;38.20;32.90;;;;;;5031655;28;20486;-9
2022/08/24 11:27:46;;;;;;;2.80;2.03;;;38.40;33.30;;;;;;5032426;28;20057;-9
2022/08/24 11:30:26;;;;;;;2.05;1.80;;;38.40;32.70;;;;;;5032550;28;20051;-9
2022/08/24 11:33:05;;;;;;;3.50;1.90;;;37.90;33.00;;;;;;5035201;28;20105;-10
2022/08/24 11:35:31;;;;;;;2.78;1.88;;;37.90;32.60;;;;;;5036163;28;20481;-9
2022/08/24 11:38:15;;;;;;;2.83;2.05;;;38.20;33.30;;;;;;5036101;28;20420;-10
2022/08/24 11:40:49;;;;;;;1.98;1.80;;;38.70;32.00;;;;;;5036482;28;20048;-9
2022/08/24 11:43:46;;;;;;;2.67;1.80;;;38.90;32.50;;;;;;5036716;28;20377;-9
2022/08/24 11:46:36;;;;;;;2.22;1.80;;;39.20;31.60;;;;;;5036344;28;20033;-9
2022/08/24 11:49:25;;;;;;;2.28;1.75;;;39.10;30.10;;;;;;5035887;28;20038;-9
2022/08/24 11:51:54;;;;;;;3.70;1.80;;;38.90;31.20;;;;;;5036345;28;20030;-9
2022/08/24 11:54:41;;;;;;;1.88;1.77;;;38.70;32.20;;;;;;5036111;28;20363;-9
2022/08/24 11:57:33;;;;;;;2.47;1.92;;;38.30;31.80;;;;;;5036003;28;20108;-10
2022/08/24 12:00:14;;;;;;;2.88;1.70;;;38.00;32.50;;;;;;5034611;28;20033;-9
2022/08/24 12:03:01;;;;;;;2.17;1.98;;;37.90;31.70;;;;;;5035766;28;20496;-9
2022/08/24 12:05:44;;;;;;;2.10;1.80;;;37.60;33.10;;;;;;5034421;28;20163;-9
2022/08/24 12:08:28;;;;;;;2.67;1.90;;;37.70;32.90;;;;;;5035954;28;20033;-9
2022/08/24 12:11:25;;;;;;;1.88;1.60;;;38.10;32.50;;;;;;5035396;28;20117;-10
2022/08/24 12:13:57;;;;;;;2.13;1.77;;;38.80;31.10;;;;;;5035862;28;20029;-10
2022/08/24 12:16:38;;;;;;;1.92;1.67;;;39.40;31.30;;;;;;5035765;28;20044;-10
2022/08/24 12:19:07;;;;;;;1.73;1.63;;;39.90;30.70;;;;;;5035112;28;20021;-9
2022/08/24 12:21:39;;;;;;;3.63;1.50;;;40.40;29.90;;;;;;5035926;28;20030;-9
2022/08/24 12:24:14;;;;;;;3.13;1.73;;;40.90;28.60;;;;;;5035617;28;20032;-10
2022/08/24 12:26:52;;;;;;;2.33;1.80;;;41.20;28.60;;;;;;5035626;28;20050;-9
2022/08/24 12:29:45;;;;;;;2.25;1.80;;;41.40;26.50;;;;;;5035053;28;20148;-9
2022/08/24 12:32:29;;;;;;;2.13;1.67;;;41.60;27.40;;;;;;5035508;28;20021;-9
2022/08/24 12:35:04;;;;;;;5.93;2.00;;;41.90;27.20;;;;;;5034973;28;20025;-12
2022/08/24 12:37:48;;;;;;;1.48;1.40;;;42.00;27.50;;;;;;5035431;28;20104;-9
2022/08/24 12:40:32;;;;;;;2.17;1.70;;;42.30;27.60;;;;;;5035026;28;20029;-9
2022/08/24 12:43:32;;;;;;;1.60;1.50;;;42.40;25.30;;;;;;5034626;28;20052;-9
2022/08/24 12:46:00;;;;;;;1.75;1.65;;;42.20;25.80;;;;;;5034900;28;20078;-9
2022/08/24 12:48:53;;;;;;;2.95;1.90;;;42.00;26.90;;;;;;5035001;28;20064;-9
2022/08/24 12:51:21;;;;;;;2.75;1.80;;;42.10;26.80;;;;;;5034944;28;20033;-9
2022/08/24 12:54:17;;;;;;;2.60;1.50;;;42.20;26.70;;;;;;5035071;28;20110;-9
2022/08/24 12:57:01;;;;;;;2.05;1.65;;;42.30;25.90;;;;;;5034983;28;20029;-9
2022/08/24 12:59:42;;;;;;;1.95;1.58;;;41.60;26.20;;;;;;5034613;28;20034;-9
2022/08/24 13:02:17;;;;;;;2.15;1.60;;;41.40;26.60;;;;;;5035057;28;20021;-9
2022/08/24 13:04:49;;;;;;;5.65;1.80;;;41.40;26.40;;;;;;5034765;28;20029;-9
2022/08/24 13:07:18;;;;;;;1.77;1.67;;;41.50;26.80;;;;;;5035178;28;20037;-9
2022/08/24 13:09:47;;;;;;;1.80;1.70;;;41.90;25.50;;;;;;5034735;28;20424;-9
2022/08/24 13:12:31;;;;;;;1.77;1.60;;;42.00;25.70;;;;;;5034514;28;20025;-9
2022/08/24 13:15:19;;;;;;;2.40;1.73;;;42.00;25.90;;;;;;5034216;28;20115;-9
2022/08/24 13:17:45;;;;;;;2.72;1.90;;;42.00;25.50;;;;;;5034282;28;20025;-10
2022/08/24 13:20:23;;;;;;;2.65;1.90;;;41.80;26.20;;;;;;5034211;28;20025;-9
2022/08/24 13:23:09;;;;;;;2.70;1.83;;;41.60;26.40;;;;;;5034858;28;20029;-9
2022/08/24 13:25:42;;;;;;;4.35;1.80;;;41.60;26.50;;;;;;5034231;28;20053;-9
2022/08/24 13:28:20;;;;;;;5.47;1.80;;;41.70;26.10;;;;;;5033891;28;20049;-9